Terminal Aerodrome Forecast
Issued by NWS

Home | Current Version | Previous Version | Text Only | Print | Product List | Glossary On
Versions: 1 2 3 4 5 6 7 8 9 10 11 12 13 14 15 16 17 18 19 20 21 22 23 24 25 26 27 28 29
000
FTUS44 KOUN 270223 CCB
TAFGAG
TAF COR
KGAG 270223Z 2702/2724 03011KT 6SM -RA VCTS OVC015CB
      TEMPO 2705/2708 4SM -TSRA OVC007CB
     FM270800 02012G22KT 6SM -RA VCTS OVC010CB
     FM271000 06012KT 2SM BR OVC005
     FM271900 02018G25KT 1 1/2SM BR OVC007
      TEMPO 2719/2723 1 1/2SM -RA=

USA.gov is the U.S. government's official web portal to all federal, state and local government web resources and services.